Time;durP1;ratioP1;P1;durP2;ratioP2;P2;SDS_P1;SDS_P2;PMS_P1;PMS_P2;Temp;Humidity;BMP_temperature;BMP_pressure;BME280_temperature;BME280_humidity;BME280_pressure;Samples;Min_cycle;Max_cycle;Signal;HPM_P1;HPM_P2
2022/08/29 00:01:07;;;;;;;3.50;1.27;;;14.30;99.90;;;;;;5050702;28;20057;-68
2022/08/29 00:03:34;;;;;;;4.38;1.60;;;14.30;99.90;;;;;;5056409;28;20036;-68
2022/08/29 00:05:59;;;;;;;3.03;1.55;;;14.30;99.90;;;;;;5054346;28;20377;-70
2022/08/29 00:08:25;;;;;;;3.03;1.80;;;14.40;99.90;;;;;;5066281;28;20048;-68
2022/08/29 00:10:52;;;;;;;3.72;1.40;;;14.40;99.90;;;;;;5051188;28;20060;-68
2022/08/29 00:13:18;;;;;;;3.92;1.40;;;14.40;99.90;;;;;;5052061;28;20070;-68
2022/08/29 00:15:44;;;;;;;3.70;1.50;;;14.40;99.90;;;;;;5051339;28;20083;-68
2022/08/29 00:18:09;;;;;;;3.83;1.73;;;14.50;99.90;;;;;;5058628;28;20060;-68
2022/08/29 00:20:36;;;;;;;3.58;1.50;;;14.50;99.90;;;;;;5060362;28;20048;-68
2022/08/29 00:23:03;;;;;;;4.38;1.50;;;14.50;99.90;;;;;;5051314;28;20500;-68
2022/08/29 00:25:30;;;;;;;3.13;1.33;;;14.50;99.90;;;;;;5067989;28;20051;-68
2022/08/29 00:27:55;;;;;;;2.92;1.50;;;14.50;99.90;;;;;;5052284;28;20128;-69
2022/08/29 00:30:22;;;;;;;3.13;1.50;;;14.50;99.90;;;;;;5067450;28;20119;-68
2022/08/29 00:32:47;;;;;;;2.25;1.40;;;14.50;99.90;;;;;;5051404;28;20041;-68
2022/08/29 00:35:17;;;;;;;3.45;1.50;;;14.50;99.90;;;;;;5055300;28;20446;-68
2022/08/29 00:37:44;;;;;;;2.97;1.15;;;14.50;99.90;;;;;;5051595;28;20049;-68
2022/08/29 00:40:13;;;;;;;3.45;1.60;;;14.60;99.90;;;;;;5051203;28;20462;-69
2022/08/29 00:42:39;;;;;;;3.13;1.60;;;14.70;99.90;;;;;;5051617;28;20086;-69
2022/08/29 00:45:09;;;;;;;4.07;1.48;;;14.70;99.90;;;;;;5054219;28;20123;-69
2022/08/29 00:47:44;;;;;;;3.80;1.55;;;14.70;99.90;;;;;;5050976;28;20040;-69
2022/08/29 00:50:24;;;;;;;3.15;1.65;;;14.70;99.90;;;;;;5055715;28;20120;-69
2022/08/29 00:52:50;;;;;;;4.57;1.67;;;14.70;99.90;;;;;;5057677;28;20071;-69
2022/08/29 00:55:22;;;;;;;3.55;1.50;;;14.70;99.90;;;;;;5052759;28;20125;-68
2022/08/29 00:57:53;;;;;;;4.97;1.70;;;14.70;99.90;;;;;;5051704;28;20052;-68
2022/08/29 01:00:20;;;;;;;2.78;1.25;;;14.80;99.90;;;;;;5051548;28;20047;-68
2022/08/29 01:02:47;;;;;;;3.75;2.05;;;14.80;99.90;;;;;;5072324;28;20048;-68
2022/08/29 01:05:15;;;;;;;4.20;1.75;;;14.80;99.90;;;;;;5049797;28;20060;-68
2022/08/29 01:07:41;;;;;;;4.13;1.67;;;14.80;99.90;;;;;;5050828;28;20103;-68
2022/08/29 01:10:08;;;;;;;4.22;1.48;;;14.80;99.90;;;;;;5051075;28;20080;-68
2022/08/29 01:12:35;;;;;;;4.95;1.77;;;14.80;99.90;;;;;;5067432;28;20462;-69
2022/08/29 01:15:07;;;;;;;3.97;1.90;;;14.80;99.90;;;;;;5061276;28;20390;-69
2022/08/29 01:17:37;;;;;;;4.68;2.22;;;14.80;99.90;;;;;;5056438;28;20494;-69
2022/08/29 01:20:17;;;;;;;4.32;1.70;;;14.80;99.90;;;;;;5058007;28;20119;-69
2022/08/29 01:22:55;;;;;;;4.97;1.65;;;14.80;99.90;;;;;;5058405;28;20045;-69
2022/08/29 01:25:24;;;;;;;3.65;1.63;;;14.80;99.90;;;;;;5062448;28;20068;-68
2022/08/29 01:27:58;;;;;;;3.80;1.70;;;14.80;99.90;;;;;;5070739;28;20137;-68
2022/08/29 01:30:24;;;;;;;4.40;1.77;;;14.80;99.90;;;;;;5069293;28;20110;-68
2022/08/29 01:32:50;;;;;;;3.65;1.63;;;14.70;99.90;;;;;;5050906;28;20452;-68
2022/08/29 01:35:15;;;;;;;3.50;1.75;;;14.70;99.90;;;;;;5050573;28;20152;-68
2022/08/29 01:37:43;;;;;;;3.35;1.80;;;14.70;99.90;;;;;;5053711;28;20041;-68
2022/08/29 01:40:10;;;;;;;3.42;1.70;;;14.70;99.90;;;;;;5066168;28;20358;-68
2022/08/29 01:42:36;;;;;;;4.53;2.17;;;14.70;99.90;;;;;;5053657;28;20591;-68
2022/08/29 01:45:04;;;;;;;2.88;1.65;;;14.70;99.90;;;;;;5050977;28;20033;-68
2022/08/29 01:47:36;;;;;;;3.33;1.65;;;14.70;99.90;;;;;;5066116;28;20041;-68
2022/08/29 01:50:07;;;;;;;3.40;1.52;;;14.70;99.90;;;;;;5049237;28;20434;-69
2022/08/29 01:52:33;;;;;;;4.82;1.73;;;14.70;99.90;;;;;;5066318;28;20052;-68
2022/08/29 01:54:59;;;;;;;2.78;1.40;;;14.70;99.90;;;;;;5050650;28;20099;-69
2022/08/29 01:57:24;;;;;;;4.57;1.45;;;14.80;99.90;;;;;;5050995;28;20088;-68
2022/08/29 01:59:50;;;;;;;3.33;1.48;;;14.80;99.90;;;;;;5053702;28;20032;-69
2022/08/29 02:02:21;;;;;;;4.22;1.90;;;14.90;99.90;;;;;;5060538;28;20044;-68
2022/08/29 02:04:48;;;;;;;3.25;1.88;;;14.90;99.90;;;;;;5060382;28;20098;-70
2022/08/29 02:07:16;;;;;;;3.78;2.03;;;14.90;99.90;;;;;;5057351;28;20237;-69
2022/08/29 02:09:42;;;;;;;7.55;1.83;;;14.90;99.90;;;;;;5066694;28;20110;-68
2022/08/29 02:12:09;;;;;;;4.63;1.95;;;14.90;99.90;;;;;;5058389;28;20068;-68
2022/08/29 02:14:35;;;;;;;6.55;1.80;;;14.90;99.90;;;;;;5053213;28;20053;-68
2022/08/29 02:17:03;;;;;;;3.88;2.00;;;14.90;99.90;;;;;;5071876;28;20037;-69
2022/08/29 02:19:29;;;;;;;4.45;2.13;;;14.90;99.90;;;;;;5061877;28;20072;-68
2022/08/29 02:21:54;;;;;;;3.83;1.75;;;14.90;99.90;;;;;;5054122;28;20092;-68
2022/08/29 02:24:20;;;;;;;4.53;1.90;;;14.90;99.90;;;;;;5056778;28;20075;-68
2022/08/29 02:26:46;;;;;;;4.78;1.90;;;14.90;99.90;;;;;;5074084;28;20436;-68
2022/08/29 02:29:11;;;;;;;4.57;1.95;;;14.90;99.90;;;;;;5057636;28;20041;-68
2022/08/29 02:31:39;;;;;;;3.58;1.90;;;14.90;99.90;;;;;;5055298;28;20036;-68
2022/08/29 02:34:06;;;;;;;4.20;2.10;;;14.90;99.90;;;;;;5053710;28;20382;-68
2022/08/29 02:36:32;;;;;;;2.50;1.70;;;14.90;99.90;;;;;;5060540;28;20358;-68
2022/08/29 02:38:58;;;;;;;5.18;1.80;;;14.90;99.90;;;;;;5073854;28;20087;-68
2022/08/29 02:41:23;;;;;;;6.05;1.67;;;14.90;99.90;;;;;;5056875;28;20048;-68
2022/08/29 02:43:49;;;;;;;3.42;1.60;;;14.90;99.90;;;;;;5069010;28;20041;-68
2022/08/29 02:46:19;;;;;;;4.00;1.70;;;14.90;99.90;;;;;;5055880;28;20049;-68
2022/08/29 02:48:46;;;;;;;4.45;2.25;;;14.90;99.90;;;;;;5056041;28;20040;-69
2022/08/29 02:51:26;;;;;;;4.78;2.30;;;14.90;99.90;;;;;;5053575;28;20148;-69
2022/08/29 02:53:53;;;;;;;4.20;1.70;;;14.90;99.90;;;;;;5053941;28;20044;-69
2022/08/29 02:56:19;;;;;;;4.50;1.73;;;14.90;99.90;;;;;;5061929;28;20049;-69
2022/08/29 02:58:47;;;;;;;3.55;1.90;;;14.90;99.90;;;;;;5073219;28;20484;-69
2022/08/29 03:01:13;;;;;;;3.67;2.08;;;14.90;99.90;;;;;;5073606;28;20048;-68
2022/08/29 03:03:39;;;;;;;3.17;1.77;;;14.80;99.90;;;;;;5055134;28;20049;-68
2022/08/29 03:06:05;;;;;;;3.97;2.10;;;14.80;99.90;;;;;;5070091;28;20045;-68
2022/08/29 03:08:31;;;;;;;5.13;2.00;;;14.70;99.90;;;;;;5052983;28;20053;-68
2022/08/29 03:10:57;;;;;;;2.85;1.52;;;14.70;99.90;;;;;;5051961;28;20037;-71
2022/08/29 03:13:22;;;;;;;3.50;1.73;;;14.60;99.90;;;;;;5064837;28;20045;-69
2022/08/29 03:15:48;;;;;;;3.90;1.63;;;14.60;99.90;;;;;;5057238;28;20048;-69
2022/08/29 03:18:14;;;;;;;3.58;1.80;;;14.60;99.90;;;;;;5068615;28;20513;-69
2022/08/29 03:20:40;;;;;;;3.25;1.60;;;14.50;99.90;;;;;;5053261;28;20060;-69
2022/08/29 03:23:06;;;;;;;3.53;1.90;;;14.50;99.90;;;;;;5052482;28;20508;-69
2022/08/29 03:25:32;;;;;;;4.32;2.05;;;14.50;99.90;;;;;;5065809;28;20032;-68
2022/08/29 03:27:59;;;;;;;3.20;1.65;;;14.50;99.90;;;;;;5073061;28;20063;-68
2022/08/29 03:30:25;;;;;;;4.97;1.88;;;14.50;99.90;;;;;;5072735;28;20408;-68
2022/08/29 03:32:51;;;;;;;5.68;2.00;;;14.60;99.90;;;;;;5057602;28;20041;-68
2022/08/29 03:35:18;;;;;;;6.97;1.83;;;14.60;99.90;;;;;;5056865;28;20059;-68
2022/08/29 03:37:44;;;;;;;4.15;1.80;;;14.60;99.90;;;;;;5052337;28;20040;-68
2022/08/29 03:40:12;;;;;;;3.58;1.90;;;14.60;99.90;;;;;;5053100;28;20036;-68
2022/08/29 03:42:39;;;;;;;3.25;1.90;;;14.60;99.90;;;;;;5052862;28;20045;-68
2022/08/29 03:45:08;;;;;;;4.90;2.10;;;14.60;99.90;;;;;;5052508;28;20048;-69
2022/08/29 03:47:34;;;;;;;3.83;2.08;;;14.60;99.90;;;;;;5059179;28;20048;-68
2022/08/29 03:50:00;;;;;;;3.53;1.90;;;14.70;99.90;;;;;;5052493;28;20043;-68
2022/08/29 03:52:26;;;;;;;4.55;2.00;;;14.70;99.90;;;;;;5062790;28;20094;-68
2022/08/29 03:54:52;;;;;;;4.82;2.17;;;14.70;99.90;;;;;;5059034;28;20099;-68
2022/08/29 03:57:18;;;;;;;5.93;2.08;;;14.70;99.90;;;;;;5053198;28;20060;-68
2022/08/29 03:59:43;;;;;;;3.90;1.90;;;14.70;99.90;;;;;;5052313;28;20041;-68
2022/08/29 04:02:09;;;;;;;4.80;1.80;;;14.70;99.90;;;;;;5052580;28;20071;-69
2022/08/29 04:07:19;;;;;;;5.22;2.17;;;14.70;99.90;;;;;;5057656;28;20045;-68
2022/08/29 04:09:44;;;;;;;5.03;1.80;;;14.70;99.90;;;;;;5052126;28;20370;-68
2022/08/29 04:12:12;;;;;;;2.92;1.60;;;14.70;99.90;;;;;;5052104;28;20136;-68
2022/08/29 04:14:38;;;;;;;4.60;2.08;;;14.70;99.90;;;;;;5066400;28;20047;-68
2022/08/29 04:17:04;;;;;;;4.03;1.60;;;14.70;99.90;;;;;;5053706;28;20041;-68
2022/08/29 04:19:30;;;;;;;4.28;1.70;;;14.80;99.90;;;;;;5054756;28;20090;-69
2022/08/29 04:21:56;;;;;;;4.63;1.80;;;14.80;99.90;;;;;;5061696;28;20045;-68
2022/08/29 04:24:23;;;;;;;4.75;1.65;;;14.80;99.90;;;;;;5056208;28;20041;-69
2022/08/29 04:26:49;;;;;;;3.40;2.03;;;14.80;99.90;;;;;;5064276;28;20044;-68
2022/08/29 04:29:15;;;;;;;4.28;1.98;;;14.90;99.90;;;;;;5065739;28;20049;-68
2022/08/29 04:31:42;;;;;;;3.65;1.90;;;14.90;99.90;;;;;;5069954;28;20043;-68
2022/08/29 04:34:12;;;;;;;4.43;2.17;;;14.90;99.90;;;;;;5069259;28;20486;-68
2022/08/29 04:36:40;;;;;;;3.90;1.92;;;14.90;99.90;;;;;;5069449;28;20044;-68
2022/08/29 04:39:07;;;;;;;4.38;1.70;;;15.00;99.90;;;;;;5067867;28;20430;-68
2022/08/29 04:41:34;;;;;;;3.70;1.60;;;14.90;99.90;;;;;;5061668;28;20048;-68
2022/08/29 04:44:00;;;;;;;3.15;1.70;;;14.90;99.90;;;;;;5066974;28;20380;-68
2022/08/29 04:46:26;;;;;;;5.72;2.10;;;14.90;99.90;;;;;;5054505;28;20369;-68
2022/08/29 04:48:52;;;;;;;2.70;1.60;;;14.90;99.90;;;;;;5071084;28;20041;-69
2022/08/29 04:51:19;;;;;;;4.13;1.80;;;14.80;99.90;;;;;;5053523;28;20041;-69
2022/08/29 04:53:45;;;;;;;4.75;2.00;;;14.80;99.90;;;;;;5072693;28;20401;-69
2022/08/29 04:56:11;;;;;;;3.40;1.80;;;14.60;99.90;;;;;;5050879;28;20068;-67
2022/08/29 04:58:40;;;;;;;3.83;1.77;;;14.50;99.90;;;;;;5051107;28;20041;-67
2022/08/29 05:01:06;;;;;;;4.00;1.90;;;14.40;99.90;;;;;;5059382;28;20047;-67
2022/08/29 05:03:33;;;;;;;2.85;1.80;;;14.30;99.90;;;;;;5071127;28;20052;-67
2022/08/29 05:06:06;;;;;;;3.15;1.50;;;14.20;99.90;;;;;;5063320;28;20477;-68
2022/08/29 05:08:33;;;;;;;3.05;1.63;;;14.20;99.90;;;;;;5050885;28;20048;-68
2022/08/29 05:10:59;;;;;;;6.63;1.67;;;14.10;99.90;;;;;;5051126;28;20111;-68
2022/08/29 05:13:26;;;;;;;5.60;2.05;;;14.00;99.90;;;;;;5049757;28;20381;-68
2022/08/29 05:15:52;;;;;;;4.30;1.60;;;13.90;99.90;;;;;;5051267;28;20037;-67
2022/08/29 05:18:18;;;;;;;3.88;1.90;;;13.80;99.90;;;;;;5050646;28;20063;-67
2022/08/29 05:20:46;;;;;;;3.80;1.38;;;13.70;99.90;;;;;;5050839;28;20049;-68
2022/08/29 05:23:13;;;;;;;3.20;1.67;;;13.70;99.90;;;;;;5066638;28;20462;-68
2022/08/29 05:25:40;;;;;;;4.70;2.00;;;13.70;99.90;;;;;;5065116;28;20045;-68
2022/08/29 05:28:06;;;;;;;3.13;1.60;;;13.70;99.90;;;;;;5063263;28;20076;-68
2022/08/29 05:30:32;;;;;;;4.78;1.73;;;13.70;99.90;;;;;;5051167;28;20041;-68
2022/08/29 05:32:58;;;;;;;4.28;1.77;;;13.70;99.90;;;;;;5066449;28;20051;-68
2022/08/29 05:35:24;;;;;;;4.45;1.63;;;13.70;99.90;;;;;;5073393;28;20043;-68
2022/08/29 05:37:50;;;;;;;3.15;1.75;;;13.80;99.90;;;;;;5061388;28;20087;-68
2022/08/29 05:40:16;;;;;;;4.00;1.70;;;13.90;99.90;;;;;;5075075;28;20052;-68
2022/08/29 05:42:42;;;;;;;5.55;2.35;;;14.00;99.90;;;;;;5059451;28;20036;-68
2022/08/29 05:45:09;;;;;;;3.20;1.60;;;14.10;99.90;;;;;;5071107;28;20076;-68
2022/08/29 05:47:35;;;;;;;3.85;1.83;;;14.20;99.90;;;;;;5061509;28;20055;-68
2022/08/29 05:50:01;;;;;;;3.63;1.77;;;14.30;99.90;;;;;;5070507;28;20036;-68
2022/08/29 05:52:27;;;;;;;2.58;1.50;;;14.30;99.90;;;;;;5053421;28;20044;-68
2022/08/29 05:54:53;;;;;;;4.63;2.13;;;14.40;99.90;;;;;;5054848;28;20128;-68
2022/08/29 05:57:21;;;;;;;4.72;1.80;;;14.50;99.90;;;;;;5054846;28;20451;-68
2022/08/29 05:59:49;;;;;;;3.47;1.88;;;14.60;99.90;;;;;;5054579;28;20477;-67
2022/08/29 06:02:16;;;;;;;6.90;1.98;;;14.70;99.90;;;;;;5064004;28;20041;-67
2022/08/29 06:04:42;;;;;;;4.25;2.08;;;14.80;99.90;;;;;;5053026;28;20099;-67
2022/08/29 06:07:08;;;;;;;6.15;2.10;;;14.90;99.90;;;;;;5054601;28;20041;-67
2022/08/29 06:09:35;;;;;;;4.60;2.25;;;15.00;99.90;;;;;;5054152;28;20124;-67
2022/08/29 06:12:02;;;;;;;3.88;2.00;;;15.10;99.90;;;;;;5057932;28;20041;-62
2022/08/29 06:14:27;;;;;;;3.90;1.92;;;15.10;99.90;;;;;;5054095;28;20119;-62
2022/08/29 06:16:54;;;;;;;3.33;1.80;;;15.20;99.90;;;;;;5054134;28;20140;-62
2022/08/29 06:19:20;;;;;;;3.95;2.00;;;15.30;99.90;;;;;;5069492;28;20468;-61
2022/08/29 06:21:46;;;;;;;3.92;2.80;;;15.30;99.90;;;;;;5075336;28;20037;-62
2022/08/29 06:24:12;;;;;;;6.30;1.90;;;15.40;99.90;;;;;;5056236;28;20389;-62
2022/08/29 06:26:38;;;;;;;3.85;1.67;;;15.50;99.90;;;;;;5062203;28;20536;-62
2022/08/29 06:29:06;;;;;;;5.47;2.38;;;15.60;99.90;;;;;;5056604;28;20088;-62
2022/08/29 06:31:32;;;;;;;3.88;1.95;;;15.60;99.90;;;;;;5060581;28;20296;-62
2022/08/29 06:33:59;;;;;;;6.15;2.22;;;15.70;99.90;;;;;;5053891;28;20122;-62
2022/08/29 06:36:27;;;;;;;4.15;1.90;;;15.80;99.90;;;;;;5055617;28;20051;-62
2022/08/29 06:38:57;;;;;;;6.00;1.60;;;15.80;99.90;;;;;;5067108;28;20040;-62
2022/08/29 06:41:24;;;;;;;4.53;1.90;;;15.90;99.90;;;;;;5053627;28;20045;-62
2022/08/29 06:43:50;;;;;;;5.13;2.10;;;16.00;99.90;;;;;;5072191;28;20167;-62
2022/08/29 06:46:19;;;;;;;5.22;1.98;;;16.00;99.90;;;;;;5053525;28;20041;-62
2022/08/29 06:48:45;;;;;;;4.63;1.67;;;16.10;99.90;;;;;;5053628;28;20084;-62
2022/08/29 06:51:11;;;;;;;3.10;1.80;;;16.20;99.90;;;;;;5053728;28;20084;-62
2022/08/29 06:53:36;;;;;;;3.88;1.75;;;16.20;99.90;;;;;;5053057;28;20056;-62
2022/08/29 06:56:04;;;;;;;4.07;1.90;;;16.30;99.90;;;;;;5053135;28;20204;-62
2022/08/29 06:58:30;;;;;;;6.68;1.92;;;16.40;99.90;;;;;;5054285;28;20128;-62
2022/08/29 07:00:55;;;;;;;3.58;1.80;;;16.40;99.90;;;;;;5053663;28;20442;-62
2022/08/29 07:03:21;;;;;;;4.32;1.63;;;16.40;99.90;;;;;;5072977;28;20040;-62
2022/08/29 07:05:53;;;;;;;3.20;2.00;;;16.50;99.90;;;;;;5065312;28;20075;-63
2022/08/29 07:08:19;;;;;;;9.55;2.20;;;16.50;99.90;;;;;;5062995;28;20052;-61
2022/08/29 07:10:45;;;;;;;3.50;1.90;;;16.50;99.90;;;;;;5053535;28;20044;-61
2022/08/29 07:13:11;;;;;;;4.95;1.70;;;16.60;99.90;;;;;;5067806;28;20131;-61
2022/08/29 07:15:36;;;;;;;3.20;1.50;;;16.60;99.90;;;;;;5053315;28;20041;-62
2022/08/29 07:18:03;;;;;;;6.07;2.10;;;16.60;99.90;;;;;;5062068;28;20076;-63
2022/08/29 07:20:28;;;;;;;3.50;1.70;;;16.60;99.90;;;;;;5062278;28;20041;-62
2022/08/29 07:22:55;;;;;;;3.15;1.77;;;16.70;99.90;;;;;;5066268;28;20049;-61
2022/08/29 07:25:21;;;;;;;4.53;2.25;;;16.80;99.90;;;;;;5071643;28;20384;-61
2022/08/29 07:27:47;;;;;;;5.97;1.90;;;16.80;99.90;;;;;;5070480;28;20069;-62
2022/08/29 07:30:15;;;;;;;5.10;1.90;;;16.80;99.90;;;;;;5061715;28;20091;-64
2022/08/29 07:32:44;;;;;;;4.03;2.03;;;16.90;99.90;;;;;;5052506;28;20063;-62
2022/08/29 07:35:11;;;;;;;4.03;1.60;;;16.90;99.90;;;;;;5058395;28;20477;-62
2022/08/29 07:37:37;;;;;;;4.32;1.75;;;17.00;99.90;;;;;;5056629;28;20080;-62
2022/08/29 07:40:04;;;;;;;3.05;1.73;;;17.10;99.90;;;;;;5056742;28;20080;-62
2022/08/29 07:42:29;;;;;;;5.35;1.70;;;17.20;99.90;;;;;;5061100;28;20048;-62
2022/08/29 07:44:55;;;;;;;5.32;1.80;;;17.30;99.90;;;;;;5058043;28;20048;-62
2022/08/29 07:47:21;;;;;;;6.50;1.90;;;17.40;99.90;;;;;;5061550;28;20047;-63
2022/08/29 07:49:46;;;;;;;4.93;1.63;;;17.50;99.90;;;;;;5056404;28;20041;-62
2022/08/29 07:52:12;;;;;;;4.40;2.00;;;17.50;99.90;;;;;;5062353;28;20044;-62
2022/08/29 07:54:38;;;;;;;5.60;1.80;;;17.60;99.90;;;;;;5051657;28;20053;-62
2022/08/29 07:57:04;;;;;;;5.55;1.85;;;17.60;99.90;;;;;;5051530;28;20052;-62
2022/08/29 07:59:30;;;;;;;4.32;1.58;;;17.70;99.90;;;;;;5051440;28;20485;-63
2022/08/29 08:01:55;;;;;;;6.47;1.92;;;17.70;99.90;;;;;;5058496;28;20485;-62
2022/08/29 08:04:21;;;;;;;5.68;2.10;;;17.80;99.90;;;;;;5061389;28;20083;-63
2022/08/29 08:06:47;;;;;;;4.45;2.00;;;17.80;99.90;;;;;;5051788;28;20071;-63
2022/08/29 08:09:15;;;;;;;4.03;1.80;;;17.80;99.90;;;;;;5070994;28;20380;-62
2022/08/29 08:11:42;;;;;;;6.22;1.85;;;17.80;99.90;;;;;;5068330;28;20071;-62
2022/08/29 08:14:08;;;;;;;5.82;1.70;;;17.80;99.90;;;;;;5055456;28;20055;-62
2022/08/29 08:16:34;;;;;;;5.53;2.03;;;17.90;99.90;;;;;;5050786;28;20119;-61
2022/08/29 08:19:00;;;;;;;3.35;1.75;;;17.90;99.90;;;;;;5067019;28;20041;-62
2022/08/29 08:21:27;;;;;;;3.30;1.80;;;17.90;99.90;;;;;;5051344;28;20099;-62
2022/08/29 08:23:53;;;;;;;5.53;1.90;;;18.00;99.90;;;;;;5051662;28;20373;-62
2022/08/29 08:26:19;;;;;;;5.93;1.90;;;18.10;99.90;;;;;;5069055;28;20072;-62
2022/08/29 08:28:45;;;;;;;5.20;2.00;;;18.10;99.90;;;;;;5051453;28;20118;-62
2022/08/29 08:31:13;;;;;;;4.72;1.98;;;18.20;99.90;;;;;;5049108;28;20045;-63
2022/08/29 08:33:39;;;;;;;6.88;2.15;;;18.30;99.90;;;;;;5051248;28;20048;-62
2022/08/29 08:36:33;;;;;;;3.40;1.65;;;18.30;99.90;;;;;;5066867;28;20056;-62
2022/08/29 08:38:59;;;;;;;6.75;2.10;;;18.40;99.90;;;;;;5064957;28;20111;-63
2022/08/29 08:41:49;;;;;;;6.57;2.03;;;18.40;99.90;;;;;;5052632;28;20377;-63
2022/08/29 08:44:21;;;;;;;6.35;2.10;;;18.50;99.90;;;;;;5054434;28;20382;-63
2022/08/29 08:46:51;;;;;;;4.47;1.88;;;18.60;99.90;;;;;;5069501;28;20040;-64
2022/08/29 08:49:23;;;;;;;4.28;1.90;;;18.70;99.90;;;;;;5057267;28;20055;-64
2022/08/29 08:51:55;;;;;;;4.28;1.90;;;18.80;99.90;;;;;;5049240;28;20599;-63
2022/08/29 08:54:25;;;;;;;7.25;2.22;;;18.90;99.90;;;;;;5055709;28;20045;-64
2022/08/29 08:56:59;;;;;;;5.70;2.05;;;19.00;99.90;;;;;;5059013;28;20111;-61
2022/08/29 08:59:41;;;;;;;4.60;1.92;;;19.00;99.90;;;;;;5052096;28;20049;-61
2022/08/29 09:02:35;;;;;;;3.75;2.10;;;19.20;99.90;;;;;;5066601;28;20377;-62
2022/08/29 09:05:39;;;;;;;4.38;2.17;;;19.50;99.90;;;;;;5050804;28;20481;-62
2022/08/29 09:08:31;;;;;;;4.82;2.25;;;19.60;99.90;;;;;;5049390;28;20044;-62
2022/08/29 09:11:16;;;;;;;3.92;2.28;;;19.80;99.90;;;;;;5070471;28;20037;-62
2022/08/29 09:14:19;;;;;;;6.55;2.30;;;19.90;99.90;;;;;;5054208;28;20070;-63
2022/08/29 09:16:49;;;;;;;4.63;1.83;;;19.80;99.90;;;;;;5059843;28;20043;-63
2022/08/29 09:19:15;;;;;;;5.57;1.95;;;19.80;99.90;;;;;;5048967;28;20378;-63
2022/08/29 09:21:54;;;;;;;3.95;2.00;;;19.80;99.90;;;;;;5065391;28;20044;-64
2022/08/29 09:24:28;;;;;;;4.43;2.10;;;19.70;99.90;;;;;;5070753;28;20047;-63
2022/08/29 09:26:55;;;;;;;5.20;2.10;;;19.70;99.90;;;;;;5070856;28;20055;-63
2022/08/29 09:29:26;;;;;;;5.13;2.08;;;19.60;99.90;;;;;;5070257;28;20040;-63
2022/08/29 09:32:21;;;;;;;5.10;2.17;;;19.60;99.90;;;;;;5064318;28;20123;-63
2022/08/29 09:34:47;;;;;;;4.40;2.05;;;19.70;99.90;;;;;;5058973;28;20499;-62
2022/08/29 09:37:33;;;;;;;5.43;2.20;;;19.70;99.90;;;;;;5065277;28;20692;-62
2022/08/29 09:40:09;;;;;;;5.03;1.83;;;19.70;99.90;;;;;;5050543;28;20033;-63
2022/08/29 09:42:41;;;;;;;4.00;1.90;;;19.60;99.90;;;;;;5050824;28;20393;-62
2022/08/29 09:45:18;;;;;;;6.03;2.35;;;19.60;99.90;;;;;;5050433;28;20037;-62
2022/08/29 09:47:44;;;;;;;5.10;2.00;;;19.50;99.90;;;;;;5054171;28;20037;-62
2022/08/29 09:50:24;;;;;;;4.05;1.98;;;19.50;99.90;;;;;;5061118;28;20040;-63
2022/08/29 09:52:56;;;;;;;4.70;2.20;;;19.50;99.90;;;;;;5051178;28;20486;-64
2022/08/29 09:55:33;;;;;;;3.72;1.77;;;19.40;99.90;;;;;;5050884;28;20037;-62
2022/08/29 09:58:25;;;;;;;5.30;1.88;;;19.40;99.90;;;;;;5050793;28;20041;-62
2022/08/29 10:01:16;;;;;;;5.50;2.42;;;19.40;99.90;;;;;;5066246;28;20120;-62
2022/08/29 10:03:58;;;;;;;4.25;2.17;;;19.40;99.90;;;;;;5050006;28;20060;-62
2022/08/29 10:06:31;;;;;;;4.10;2.10;;;19.40;99.90;;;;;;5059460;28;20536;-62
2022/08/29 10:09:09;;;;;;;4.32;1.80;;;19.40;99.90;;;;;;5069541;28;20051;-62
2022/08/29 10:11:52;;;;;;;8.13;2.20;;;19.40;99.90;;;;;;5069276;28;20055;-62
2022/08/29 10:14:35;;;;;;;4.28;1.77;;;19.50;99.90;;;;;;5068787;28;20123;-62
2022/08/29 10:19:47;;;;;;;;;;;19.60;99.90;;;;;;5067915;28;20094;-62
2022/08/29 10:22:35;;;;;;;4.30;3.03;;;19.60;99.90;;;;;;5073723;28;20387;-62
2022/08/29 10:25:12;;;;;;;7.40;1.75;;;19.70;99.90;;;;;;5070516;28;20028;-62
2022/08/29 10:28:00;;;;;;;4.35;1.80;;;19.80;99.90;;;;;;5072837;28;20041;-62
2022/08/29 10:30:35;;;;;;;5.70;1.90;;;19.90;99.90;;;;;;5070346;28;20376;-61
2022/08/29 10:33:13;;;;;;;3.93;2.00;;;20.00;99.90;;;;;;5073745;28;20064;-62
2022/08/29 10:35:59;;;;;;;7.47;2.20;;;20.10;99.90;;;;;;5073079;28;20193;-62
2022/08/29 10:38:55;;;;;;;4.82;2.03;;;20.20;99.90;;;;;;5073467;28;20546;-62
2022/08/29 10:41:29;;;;;;;5.57;2.20;;;20.30;99.90;;;;;;5074128;28;20051;-62
2022/08/29 10:44:07;;;;;;;3.30;1.80;;;20.30;99.90;;;;;;5074296;28;20059;-62
2022/08/29 10:46:43;;;;;;;4.38;2.08;;;20.40;99.90;;;;;;5074080;28;20044;-62
2022/08/29 10:49:12;;;;;;;5.47;2.00;;;20.50;99.90;;;;;;5074108;28;20052;-62
2022/08/29 10:52:02;;;;;;;5.93;1.88;;;20.50;99.90;;;;;;5073854;28;20059;-62
2022/08/29 10:54:44;;;;;;;3.75;1.80;;;20.50;99.90;;;;;;5074062;28;20092;-62
2022/08/29 10:57:15;;;;;;;3.80;2.15;;;20.50;99.90;;;;;;5073876;28;20130;-62
2022/08/29 10:59:59;;;;;;;6.72;2.00;;;20.60;99.90;;;;;;5073278;28;20077;-62
2022/08/29 11:02:53;;;;;;;7.38;2.22;;;20.70;99.90;;;;;;5073721;28;20051;-62
2022/08/29 11:05:34;;;;;;;4.95;1.77;;;20.80;99.90;;;;;;5073777;28;20483;-62
2022/08/29 11:08:08;;;;;;;3.38;1.83;;;20.90;99.90;;;;;;5073412;28;20465;-62
2022/08/29 11:10:43;;;;;;;3.25;2.25;;;21.10;99.90;;;;;;5073635;28;20044;-62
2022/08/29 11:13:24;;;;;;;3.97;1.85;;;21.20;99.90;;;;;;5073746;28;20388;-62
2022/08/29 11:16:12;;;;;;;5.28;1.90;;;21.20;99.90;;;;;;5073439;28;20093;-62
2022/08/29 11:19:00;;;;;;;5.30;1.80;;;21.10;99.90;;;;;;5073590;28;20041;-62
2022/08/29 11:22:07;;;;;;;4.88;2.22;;;21.10;99.90;;;;;;5073348;28;20381;-62
2022/08/29 11:24:35;;;;;;;3.83;2.00;;;21.10;99.90;;;;;;5050684;28;20163;-62
2022/08/29 11:27:48;;;;;;;3.00;1.80;;;21.10;99.90;;;;;;5068583;28;20445;-61
2022/08/29 11:30:17;;;;;;;5.45;2.10;;;21.10;99.90;;;;;;5072990;28;20040;-62
2022/08/29 11:32:51;;;;;;;5.93;2.17;;;21.10;99.90;;;;;;5072247;28;20036;-63
2022/08/29 11:35:32;;;;;;;4.03;2.03;;;21.00;99.90;;;;;;5071823;28;20040;-61
2022/08/29 11:38:35;;;;;;;3.50;1.80;;;21.00;99.90;;;;;;5072597;28;20477;-61
2022/08/29 11:41:06;;;;;;;4.85;1.83;;;21.00;99.90;;;;;;5072679;28;20048;-61
2022/08/29 11:43:47;;;;;;;3.17;1.85;;;21.10;99.90;;;;;;5073048;28;20045;-61
2022/08/29 11:46:23;;;;;;;5.30;1.80;;;21.10;99.90;;;;;;5073073;28;20054;-61
2022/08/29 11:48:51;;;;;;;3.95;1.83;;;21.10;99.90;;;;;;5072974;28;20060;-62
2022/08/29 11:51:36;;;;;;;4.00;1.83;;;21.10;99.90;;;;;;5072645;28;20040;-62
2022/08/29 11:54:21;;;;;;;3.78;1.65;;;21.10;99.90;;;;;;5072446;28;20091;-62
2022/08/29 11:56:46;;;;;;;4.72;1.83;;;21.10;99.90;;;;;;5071007;28;20053;-61
2022/08/29 11:59:50;;;;;;;4.55;1.50;;;21.20;99.90;;;;;;5072672;28;20047;-62
2022/08/29 12:02:31;;;;;;;4.25;1.80;;;21.30;99.90;;;;;;5072379;28;20098;-61
2022/08/29 12:05:07;;;;;;;4.32;1.92;;;21.50;99.90;;;;;;5072502;28;20373;-62
2022/08/29 12:07:34;;;;;;;4.60;1.85;;;21.60;99.90;;;;;;5072532;28;20078;-62
2022/08/29 12:10:04;;;;;;;3.35;1.77;;;21.70;99.90;;;;;;5071968;28;20085;-62
2022/08/29 12:12:48;;;;;;;4.57;1.83;;;21.70;99.90;;;;;;5072792;28;20048;-62
2022/08/29 12:15:26;;;;;;;5.20;1.80;;;21.70;99.90;;;;;;5072328;28;20043;-62
2022/08/29 12:17:56;;;;;;;3.13;1.67;;;21.70;99.90;;;;;;5072381;28;20456;-63
2022/08/29 12:20:34;;;;;;;3.53;1.70;;;21.60;99.90;;;;;;5072169;28;20067;-62
2022/08/29 12:23:14;;;;;;;4.13;1.55;;;21.60;99.90;;;;;;5072111;28;20041;-62
2022/08/29 12:25:55;;;;;;;4.97;1.85;;;21.60;99.90;;;;;;5072194;28;20048;-61
2022/08/29 12:28:24;;;;;;;3.50;1.80;;;21.50;99.90;;;;;;5072166;28;20040;-61
2022/08/29 12:30:56;;;;;;;5.72;2.00;;;21.50;99.90;;;;;;5072136;28;20384;-61
2022/08/29 12:33:43;;;;;;;3.72;1.40;;;21.60;99.90;;;;;;5071949;28;20044;-61
2022/08/29 12:36:27;;;;;;;4.05;2.10;;;21.60;99.90;;;;;;5071899;28;20040;-61
2022/08/29 12:39:21;;;;;;;2.85;1.70;;;21.70;99.90;;;;;;5070377;28;20480;-62
2022/08/29 12:42:07;;;;;;;4.53;1.73;;;21.70;99.90;;;;;;5071927;28;20102;-61
2022/08/29 12:45:05;;;;;;;4.32;1.88;;;21.70;99.90;;;;;;5071484;28;20493;-62
2022/08/29 12:47:38;;;;;;;4.60;1.92;;;21.70;99.90;;;;;;5061679;28;20048;-62
2022/08/29 12:50:31;;;;;;;4.35;1.98;;;21.70;99.90;;;;;;5070676;28;20056;-62
2022/08/29 12:53:22;;;;;;;4.90;1.98;;;21.60;99.90;;;;;;5071598;28;20119;-62
2022/08/29 12:55:53;;;;;;;4.38;1.60;;;21.60;99.90;;;;;;5071674;28;20380;-62
2022/08/29 12:58:37;;;;;;;3.38;1.35;;;21.50;99.90;;;;;;5071718;28;20067;-62
2022/08/29 13:01:08;;;;;;;4.03;1.85;;;21.50;99.90;;;;;;5070445;28;20044;-63
2022/08/29 13:03:35;;;;;;;3.42;1.75;;;21.50;99.90;;;;;;5071709;28;20480;-62
2022/08/29 13:06:12;;;;;;;2.78;1.77;;;21.60;99.90;;;;;;5071140;28;20052;-62
2022/08/29 13:08:39;;;;;;;3.08;1.67;;;21.60;99.90;;;;;;5070976;28;20490;-62
2022/08/29 13:11:09;;;;;;;4.13;2.00;;;21.60;99.90;;;;;;5071423;28;20048;-62
2022/08/29 13:13:35;;;;;;;3.58;1.77;;;21.80;99.90;;;;;;5071477;28;20118;-62